sensor_id;sensor_type;location;lat;lon;timestamp;P1;durP1;ratioP1;P2;durP2;ratioP2
4650;SDS011;2338;49.602;8.722;2024-02-16T00:00:12;8.87;;;2.50;;
4650;SDS011;2338;49.602;8.722;2024-02-16T00:03:00;3.37;;;1.83;;
4650;SDS011;2338;49.602;8.722;2024-02-16T00:05:46;5.90;;;2.70;;
4650;SDS011;2338;49.602;8.722;2024-02-16T00:08:32;3.53;;;2.30;;
4650;SDS011;2338;49.602;8.722;2024-02-16T00:11:22;4.30;;;2.20;;
4650;SDS011;2338;49.602;8.722;2024-02-16T00:14:09;3.63;;;2.40;;
4650;SDS011;2338;49.602;8.722;2024-02-16T00:16:54;6.90;;;2.17;;
4650;SDS011;2338;49.602;8.722;2024-02-16T00:19:40;10.63;;;2.83;;
4650;SDS011;2338;49.602;8.722;2024-02-16T00:22:26;4.30;;;2.67;;
4650;SDS011;2338;49.602;8.722;2024-02-16T00:25:12;8.03;;;3.00;;
4650;SDS011;2338;49.602;8.722;2024-02-16T00:27:59;5.90;;;2.70;;
4650;SDS011;2338;49.602;8.722;2024-02-16T00:30:44;4.93;;;2.30;;
4650;SDS011;2338;49.602;8.722;2024-02-16T00:33:30;4.30;;;2.93;;
4650;SDS011;2338;49.602;8.722;2024-02-16T00:36:17;6.17;;;2.80;;
4650;SDS011;2338;49.602;8.722;2024-02-16T00:39:02;10.33;;;2.70;;
4650;SDS011;2338;49.602;8.722;2024-02-16T00:41:49;10.07;;;2.90;;
4650;SDS011;2338;49.602;8.722;2024-02-16T00:44:36;7.27;;;2.77;;
4650;SDS011;2338;49.602;8.722;2024-02-16T00:47:21;6.00;;;2.50;;
4650;SDS011;2338;49.602;8.722;2024-02-16T00:50:07;4.87;;;2.10;;
4650;SDS011;2338;49.602;8.722;2024-02-16T00:52:53;4.50;;;2.40;;
4650;SDS011;2338;49.602;8.722;2024-02-16T00:55:39;6.13;;;2.73;;
4650;SDS011;2338;49.602;8.722;2024-02-16T00:58:27;4.63;;;2.20;;
4650;SDS011;2338;49.602;8.722;2024-02-16T01:01:12;7.47;;;2.87;;
4650;SDS011;2338;49.602;8.722;2024-02-16T01:03:58;11.73;;;2.10;;
4650;SDS011;2338;49.602;8.722;2024-02-16T01:06:44;9.63;;;2.83;;
4650;SDS011;2338;49.602;8.722;2024-02-16T01:09:30;4.30;;;2.90;;
4650;SDS011;2338;49.602;8.722;2024-02-16T01:12:15;2.80;;;2.20;;
4650;SDS011;2338;49.602;8.722;2024-02-16T01:15:03;6.20;;;2.73;;
4650;SDS011;2338;49.602;8.722;2024-02-16T01:17:49;3.30;;;2.27;;
4650;SDS011;2338;49.602;8.722;2024-02-16T01:20:35;7.53;;;2.43;;
4650;SDS011;2338;49.602;8.722;2024-02-16T01:23:20;5.30;;;2.40;;
4650;SDS011;2338;49.602;8.722;2024-02-16T01:26:06;6.10;;;3.23;;
4650;SDS011;2338;49.602;8.722;2024-02-16T01:28:52;3.67;;;2.70;;
4650;SDS011;2338;49.602;8.722;2024-02-16T01:31:39;5.50;;;3.03;;
4650;SDS011;2338;49.602;8.722;2024-02-16T01:34:24;4.07;;;2.43;;
4650;SDS011;2338;49.602;8.722;2024-02-16T01:37:10;4.10;;;2.30;;
4650;SDS011;2338;49.602;8.722;2024-02-16T01:39:56;5.60;;;2.30;;
4650;SDS011;2338;49.602;8.722;2024-02-16T01:42:42;8.33;;;2.40;;
4650;SDS011;2338;49.602;8.722;2024-02-16T01:45:28;5.50;;;2.73;;
4650;SDS011;2338;49.602;8.722;2024-02-16T01:48:15;6.53;;;2.17;;
4650;SDS011;2338;49.602;8.722;2024-02-16T01:51:01;5.37;;;1.90;;
4650;SDS011;2338;49.602;8.722;2024-02-16T01:53:48;5.00;;;2.10;;
4650;SDS011;2338;49.602;8.722;2024-02-16T01:56:34;7.40;;;2.67;;
4650;SDS011;2338;49.602;8.722;2024-02-16T01:59:19;8.63;;;2.40;;
4650;SDS011;2338;49.602;8.722;2024-02-16T02:02:05;10.20;;;2.50;;
4650;SDS011;2338;49.602;8.722;2024-02-16T02:04:52;5.73;;;2.30;;
4650;SDS011;2338;49.602;8.722;2024-02-16T02:07:38;8.00;;;2.67;;
4650;SDS011;2338;49.602;8.722;2024-02-16T02:10:23;7.10;;;2.10;;
4650;SDS011;2338;49.602;8.722;2024-02-16T02:13:09;2.93;;;2.40;;
4650;SDS011;2338;49.602;8.722;2024-02-16T02:15:55;8.83;;;2.27;;
4650;SDS011;2338;49.602;8.722;2024-02-16T02:18:42;6.83;;;2.20;;
4650;SDS011;2338;49.602;8.722;2024-02-16T02:21:30;4.90;;;2.07;;
4650;SDS011;2338;49.602;8.722;2024-02-16T02:24:16;12.93;;;3.10;;
4650;SDS011;2338;49.602;8.722;2024-02-16T02:27:02;9.07;;;2.50;;
4650;SDS011;2338;49.602;8.722;2024-02-16T02:29:47;6.80;;;2.13;;
4650;SDS011;2338;49.602;8.722;2024-02-16T02:32:33;2.87;;;1.97;;
4650;SDS011;2338;49.602;8.722;2024-02-16T02:35:19;4.73;;;2.30;;
4650;SDS011;2338;49.602;8.722;2024-02-16T02:38:05;3.20;;;2.57;;
4650;SDS011;2338;49.602;8.722;2024-02-16T02:40:51;4.80;;;2.63;;
4650;SDS011;2338;49.602;8.722;2024-02-16T02:43:37;4.23;;;2.47;;
4650;SDS011;2338;49.602;8.722;2024-02-16T02:46:23;3.87;;;2.30;;
4650;SDS011;2338;49.602;8.722;2024-02-16T02:49:08;9.60;;;2.73;;
4650;SDS011;2338;49.602;8.722;2024-02-16T02:51:54;6.63;;;2.63;;
4650;SDS011;2338;49.602;8.722;2024-02-16T02:54:39;4.80;;;2.50;;
4650;SDS011;2338;49.602;8.722;2024-02-16T02:57:27;4.43;;;2.63;;
4650;SDS011;2338;49.602;8.722;2024-02-16T03:00:12;6.10;;;2.20;;
4650;SDS011;2338;49.602;8.722;2024-02-16T03:02:59;7.67;;;2.90;;
4650;SDS011;2338;49.602;8.722;2024-02-16T03:05:45;8.07;;;2.80;;
4650;SDS011;2338;49.602;8.722;2024-02-16T03:08:30;3.27;;;2.63;;
4650;SDS011;2338;49.602;8.722;2024-02-16T03:11:16;5.77;;;2.60;;
4650;SDS011;2338;49.602;8.722;2024-02-16T03:14:03;5.23;;;2.63;;
4650;SDS011;2338;49.602;8.722;2024-02-16T03:16:49;3.30;;;1.77;;
4650;SDS011;2338;49.602;8.722;2024-02-16T03:19:35;5.40;;;2.73;;
4650;SDS011;2338;49.602;8.722;2024-02-16T03:22:21;3.10;;;2.20;;
4650;SDS011;2338;49.602;8.722;2024-02-16T03:25:07;10.43;;;2.17;;
4650;SDS011;2338;49.602;8.722;2024-02-16T03:27:53;5.90;;;2.63;;
4650;SDS011;2338;49.602;8.722;2024-02-16T03:30:40;10.13;;;2.93;;
4650;SDS011;2338;49.602;8.722;2024-02-16T03:33:26;3.10;;;2.30;;
4650;SDS011;2338;49.602;8.722;2024-02-16T03:36:12;7.40;;;2.93;;
4650;SDS011;2338;49.602;8.722;2024-02-16T03:38:58;4.07;;;2.17;;
4650;SDS011;2338;49.602;8.722;2024-02-16T03:41:44;6.83;;;2.70;;
4650;SDS011;2338;49.602;8.722;2024-02-16T03:44:32;6.03;;;3.03;;
4650;SDS011;2338;49.602;8.722;2024-02-16T03:47:19;6.33;;;2.60;;
4650;SDS011;2338;49.602;8.722;2024-02-16T03:50:05;4.23;;;2.10;;
4650;SDS011;2338;49.602;8.722;2024-02-16T03:52:51;7.70;;;2.07;;
4650;SDS011;2338;49.602;8.722;2024-02-16T03:55:37;10.30;;;3.20;;
4650;SDS011;2338;49.602;8.722;2024-02-16T03:58:22;6.43;;;2.60;;
4650;SDS011;2338;49.602;8.722;2024-02-16T04:01:08;5.10;;;2.10;;
4650;SDS011;2338;49.602;8.722;2024-02-16T04:03:55;3.80;;;2.10;;
4650;SDS011;2338;49.602;8.722;2024-02-16T04:06:41;5.63;;;2.67;;
4650;SDS011;2338;49.602;8.722;2024-02-16T04:09:27;4.73;;;2.70;;
4650;SDS011;2338;49.602;8.722;2024-02-16T04:12:13;5.03;;;2.30;;
4650;SDS011;2338;49.602;8.722;2024-02-16T04:14:58;3.93;;;2.50;;
4650;SDS011;2338;49.602;8.722;2024-02-16T04:17:44;5.83;;;2.33;;
4650;SDS011;2338;49.602;8.722;2024-02-16T04:20:31;4.00;;;2.63;;
4650;SDS011;2338;49.602;8.722;2024-02-16T04:23:17;4.40;;;2.47;;
4650;SDS011;2338;49.602;8.722;2024-02-16T04:26:03;5.73;;;3.07;;
4650;SDS011;2338;49.602;8.722;2024-02-16T04:28:50;6.00;;;2.60;;
4650;SDS011;2338;49.602;8.722;2024-02-16T04:31:38;8.13;;;3.20;;
4650;SDS011;2338;49.602;8.722;2024-02-16T04:34:25;6.37;;;3.60;;
4650;SDS011;2338;49.602;8.722;2024-02-16T04:37:13;4.00;;;2.33;;
4650;SDS011;2338;49.602;8.722;2024-02-16T04:39:58;6.20;;;3.60;;
4650;SDS011;2338;49.602;8.722;2024-02-16T04:42:44;7.37;;;3.07;;
4650;SDS011;2338;49.602;8.722;2024-02-16T04:45:29;5.10;;;3.30;;
4650;SDS011;2338;49.602;8.722;2024-02-16T04:48:15;6.93;;;2.97;;
4650;SDS011;2338;49.602;8.722;2024-02-16T04:51:01;6.23;;;3.07;;
4650;SDS011;2338;49.602;8.722;2024-02-16T04:53:48;6.23;;;2.83;;
4650;SDS011;2338;49.602;8.722;2024-02-16T04:56:33;8.00;;;2.70;;
4650;SDS011;2338;49.602;8.722;2024-02-16T04:59:19;6.60;;;2.60;;
4650;SDS011;2338;49.602;8.722;2024-02-16T05:02:05;5.07;;;2.47;;
4650;SDS011;2338;49.602;8.722;2024-02-16T05:04:51;3.33;;;2.03;;
4650;SDS011;2338;49.602;8.722;2024-02-16T05:07:37;5.87;;;2.57;;
4650;SDS011;2338;49.602;8.722;2024-02-16T05:10:23;6.83;;;2.87;;
4650;SDS011;2338;49.602;8.722;2024-02-16T05:13:09;3.20;;;2.13;;
4650;SDS011;2338;49.602;8.722;2024-02-16T05:15:56;4.30;;;2.00;;
4650;SDS011;2338;49.602;8.722;2024-02-16T05:18:41;4.07;;;2.73;;
4650;SDS011;2338;49.602;8.722;2024-02-16T05:21:27;3.60;;;2.60;;
4650;SDS011;2338;49.602;8.722;2024-02-16T05:24:13;5.37;;;3.10;;
4650;SDS011;2338;49.602;8.722;2024-02-16T05:27:00;9.03;;;2.90;;
4650;SDS011;2338;49.602;8.722;2024-02-16T05:29:46;3.83;;;2.50;;
4650;SDS011;2338;49.602;8.722;2024-02-16T05:32:32;4.80;;;2.00;;
4650;SDS011;2338;49.602;8.722;2024-02-16T05:35:18;4.80;;;2.40;;
4650;SDS011;2338;49.602;8.722;2024-02-16T05:38:04;4.37;;;2.20;;
4650;SDS011;2338;49.602;8.722;2024-02-16T05:41:04;6.20;;;2.63;;
4650;SDS011;2338;49.602;8.722;2024-02-16T05:43:51;4.30;;;2.10;;
4650;SDS011;2338;49.602;8.722;2024-02-16T05:46:37;14.27;;;2.63;;
4650;SDS011;2338;49.602;8.722;2024-02-16T05:49:22;5.43;;;2.20;;
4650;SDS011;2338;49.602;8.722;2024-02-16T05:52:08;3.30;;;2.20;;
4650;SDS011;2338;49.602;8.722;2024-02-16T05:55:03;4.60;;;2.30;;
4650;SDS011;2338;49.602;8.722;2024-02-16T05:57:48;9.57;;;2.23;;
4650;SDS011;2338;49.602;8.722;2024-02-16T06:00:35;4.97;;;2.27;;
4650;SDS011;2338;49.602;8.722;2024-02-16T06:03:21;4.73;;;2.33;;
4650;SDS011;2338;49.602;8.722;2024-02-16T06:06:07;6.60;;;2.70;;
4650;SDS011;2338;49.602;8.722;2024-02-16T06:08:53;5.07;;;2.20;;
4650;SDS011;2338;49.602;8.722;2024-02-16T06:11:39;16.87;;;2.53;;
4650;SDS011;2338;49.602;8.722;2024-02-16T06:14:24;6.33;;;2.60;;
4650;SDS011;2338;49.602;8.722;2024-02-16T06:17:11;8.40;;;2.73;;
4650;SDS011;2338;49.602;8.722;2024-02-16T06:19:58;4.03;;;2.37;;
4650;SDS011;2338;49.602;8.722;2024-02-16T06:22:44;5.53;;;2.50;;
4650;SDS011;2338;49.602;8.722;2024-02-16T06:25:29;5.50;;;2.17;;
4650;SDS011;2338;49.602;8.722;2024-02-16T06:28:15;4.03;;;2.43;;
4650;SDS011;2338;49.602;8.722;2024-02-16T06:31:01;3.97;;;2.50;;
4650;SDS011;2338;49.602;8.722;2024-02-16T06:33:49;8.07;;;2.30;;
4650;SDS011;2338;49.602;8.722;2024-02-16T06:36:35;3.90;;;2.23;;
4650;SDS011;2338;49.602;8.722;2024-02-16T06:39:20;4.43;;;2.60;;
4650;SDS011;2338;49.602;8.722;2024-02-16T06:42:06;8.17;;;2.80;;
4650;SDS011;2338;49.602;8.722;2024-02-16T06:44:52;9.50;;;2.60;;
4650;SDS011;2338;49.602;8.722;2024-02-16T06:47:38;6.03;;;2.77;;
4650;SDS011;2338;49.602;8.722;2024-02-16T06:50:25;4.47;;;2.50;;
4650;SDS011;2338;49.602;8.722;2024-02-16T06:53:10;5.20;;;2.80;;
4650;SDS011;2338;49.602;8.722;2024-02-16T06:55:56;4.80;;;2.80;;
4650;SDS011;2338;49.602;8.722;2024-02-16T06:58:42;6.37;;;2.80;;
4650;SDS011;2338;49.602;8.722;2024-02-16T07:01:27;5.00;;;2.97;;
4650;SDS011;2338;49.602;8.722;2024-02-16T07:04:13;4.33;;;3.23;;
4650;SDS011;2338;49.602;8.722;2024-02-16T07:07:00;8.33;;;3.00;;
4650;SDS011;2338;49.602;8.722;2024-02-16T07:09:47;12.83;;;4.07;;
4650;SDS011;2338;49.602;8.722;2024-02-16T07:12:33;5.93;;;3.13;;
4650;SDS011;2338;49.602;8.722;2024-02-16T07:15:19;5.47;;;2.83;;
4650;SDS011;2338;49.602;8.722;2024-02-16T07:18:05;5.60;;;2.80;;
4650;SDS011;2338;49.602;8.722;2024-02-16T07:20:50;6.30;;;2.83;;
4650;SDS011;2338;49.602;8.722;2024-02-16T07:23:37;6.20;;;2.60;;
4650;SDS011;2338;49.602;8.722;2024-02-16T07:26:23;5.47;;;2.40;;
4650;SDS011;2338;49.602;8.722;2024-02-16T07:29:09;7.87;;;2.97;;
4650;SDS011;2338;49.602;8.722;2024-02-16T07:31:56;3.80;;;2.60;;
4650;SDS011;2338;49.602;8.722;2024-02-16T07:34:45;7.57;;;4.73;;
4650;SDS011;2338;49.602;8.722;2024-02-16T07:37:31;6.47;;;2.67;;
4650;SDS011;2338;49.602;8.722;2024-02-16T07:40:19;4.27;;;3.20;;
4650;SDS011;2338;49.602;8.722;2024-02-16T07:43:04;7.30;;;2.83;;
4650;SDS011;2338;49.602;8.722;2024-02-16T07:45:50;4.80;;;2.87;;
4650;SDS011;2338;49.602;8.722;2024-02-16T07:48:37;9.70;;;3.67;;
4650;SDS011;2338;49.602;8.722;2024-02-16T07:51:23;6.27;;;3.30;;
4650;SDS011;2338;49.602;8.722;2024-02-16T07:54:09;6.80;;;4.00;;
4650;SDS011;2338;49.602;8.722;2024-02-16T07:56:56;6.30;;;3.60;;
4650;SDS011;2338;49.602;8.722;2024-02-16T07:59:43;6.20;;;3.47;;
4650;SDS011;2338;49.602;8.722;2024-02-16T08:02:28;5.20;;;3.43;;
4650;SDS011;2338;49.602;8.722;2024-02-16T08:05:14;4.53;;;3.47;;
4650;SDS011;2338;49.602;8.722;2024-02-16T08:08:02;8.07;;;4.77;;
4650;SDS011;2338;49.602;8.722;2024-02-16T08:10:48;6.40;;;4.43;;
4650;SDS011;2338;49.602;8.722;2024-02-16T08:13:35;8.80;;;5.83;;
4650;SDS011;2338;49.602;8.722;2024-02-16T08:16:21;9.57;;;5.20;;
4650;SDS011;2338;49.602;8.722;2024-02-16T08:19:07;7.13;;;3.57;;
4650;SDS011;2338;49.602;8.722;2024-02-16T08:21:52;7.50;;;4.30;;
4650;SDS011;2338;49.602;8.722;2024-02-16T08:24:38;9.60;;;5.70;;
4650;SDS011;2338;49.602;8.722;2024-02-16T08:27:24;8.80;;;5.73;;
4650;SDS011;2338;49.602;8.722;2024-02-16T08:30:12;6.00;;;4.70;;
4650;SDS011;2338;49.602;8.722;2024-02-16T08:32:58;7.17;;;5.13;;
4650;SDS011;2338;49.602;8.722;2024-02-16T08:35:43;7.50;;;4.40;;
4650;SDS011;2338;49.602;8.722;2024-02-16T08:38:29;8.13;;;4.50;;
4650;SDS011;2338;49.602;8.722;2024-02-16T08:41:15;5.87;;;5.10;;
4650;SDS011;2338;49.602;8.722;2024-02-16T08:44:01;10.43;;;3.93;;
4650;SDS011;2338;49.602;8.722;2024-02-16T08:46:48;4.50;;;3.40;;
4650;SDS011;2338;49.602;8.722;2024-02-16T08:49:34;7.53;;;3.60;;
4650;SDS011;2338;49.602;8.722;2024-02-16T08:52:20;7.80;;;3.23;;
4650;SDS011;2338;49.602;8.722;2024-02-16T08:55:06;8.57;;;4.20;;
4650;SDS011;2338;49.602;8.722;2024-02-16T08:57:52;5.87;;;3.43;;
4650;SDS011;2338;49.602;8.722;2024-02-16T09:00:38;6.50;;;3.37;;
4650;SDS011;2338;49.602;8.722;2024-02-16T09:03:25;5.43;;;3.23;;
4650;SDS011;2338;49.602;8.722;2024-02-16T09:06:11;11.03;;;3.70;;
4650;SDS011;2338;49.602;8.722;2024-02-16T09:08:56;4.47;;;2.97;;
4650;SDS011;2338;49.602;8.722;2024-02-16T09:11:42;4.77;;;3.40;;
4650;SDS011;2338;49.602;8.722;2024-02-16T09:14:28;4.33;;;3.13;;
4650;SDS011;2338;49.602;8.722;2024-02-16T09:17:13;8.63;;;3.40;;
4650;SDS011;2338;49.602;8.722;2024-02-16T09:20:00;7.10;;;3.60;;
4650;SDS011;2338;49.602;8.722;2024-02-16T09:22:48;5.13;;;2.87;;
4650;SDS011;2338;49.602;8.722;2024-02-16T09:25:33;4.43;;;3.07;;
4650;SDS011;2338;49.602;8.722;2024-02-16T09:28:19;7.60;;;3.63;;
4650;SDS011;2338;49.602;8.722;2024-02-16T09:31:05;8.17;;;3.10;;
4650;SDS011;2338;49.602;8.722;2024-02-16T09:33:51;6.63;;;3.83;;
4650;SDS011;2338;49.602;8.722;2024-02-16T09:36:38;5.50;;;3.80;;
4650;SDS011;2338;49.602;8.722;2024-02-16T09:39:24;6.53;;;4.10;;
4650;SDS011;2338;49.602;8.722;2024-02-16T09:42:11;8.60;;;4.07;;
4650;SDS011;2338;49.602;8.722;2024-02-16T09:44:58;13.00;;;7.23;;
4650;SDS011;2338;49.602;8.722;2024-02-16T09:47:44;8.77;;;5.33;;
4650;SDS011;2338;49.602;8.722;2024-02-16T09:50:31;9.57;;;4.43;;
4650;SDS011;2338;49.602;8.722;2024-02-16T09:53:18;5.20;;;3.10;;
4650;SDS011;2338;49.602;8.722;2024-02-16T09:56:06;4.40;;;2.83;;
4650;SDS011;2338;49.602;8.722;2024-02-16T09:58:53;5.83;;;3.70;;
4650;SDS011;2338;49.602;8.722;2024-02-16T10:01:39;6.30;;;3.30;;
4650;SDS011;2338;49.602;8.722;2024-02-16T10:04:25;7.20;;;3.70;;
4650;SDS011;2338;49.602;8.722;2024-02-16T10:07:11;6.20;;;2.67;;
4650;SDS011;2338;49.602;8.722;2024-02-16T10:09:58;5.13;;;3.00;;
4650;SDS011;2338;49.602;8.722;2024-02-16T10:12:44;8.97;;;3.00;;
4650;SDS011;2338;49.602;8.722;2024-02-16T10:15:30;7.50;;;3.20;;
4650;SDS011;2338;49.602;8.722;2024-02-16T10:18:15;6.50;;;3.30;;
4650;SDS011;2338;49.602;8.722;2024-02-16T10:21:01;6.87;;;3.40;;
4650;SDS011;2338;49.602;8.722;2024-02-16T10:23:54;5.17;;;3.10;;
4650;SDS011;2338;49.602;8.722;2024-02-16T10:26:42;4.13;;;2.50;;
4650;SDS011;2338;49.602;8.722;2024-02-16T10:29:28;5.23;;;2.67;;
4650;SDS011;2338;49.602;8.722;2024-02-16T10:32:15;9.80;;;3.10;;
4650;SDS011;2338;49.602;8.722;2024-02-16T10:35:01;4.87;;;2.80;;
4650;SDS011;2338;49.602;8.722;2024-02-16T10:37:49;7.73;;;2.90;;
4650;SDS011;2338;49.602;8.722;2024-02-16T10:40:36;13.53;;;3.73;;
4650;SDS011;2338;49.602;8.722;2024-02-16T10:43:24;4.80;;;2.67;;
4650;SDS011;2338;49.602;8.722;2024-02-16T10:46:11;6.13;;;3.20;;
4650;SDS011;2338;49.602;8.722;2024-02-16T10:48:57;7.70;;;2.90;;
4650;SDS011;2338;49.602;8.722;2024-02-16T10:51:44;5.73;;;3.10;;
4650;SDS011;2338;49.602;8.722;2024-02-16T10:54:32;8.00;;;3.47;;
4650;SDS011;2338;49.602;8.722;2024-02-16T10:57:19;9.03;;;2.67;;
4650;SDS011;2338;49.602;8.722;2024-02-16T11:00:09;13.00;;;2.60;;
4650;SDS011;2338;49.602;8.722;2024-02-16T11:02:55;6.50;;;3.10;;
4650;SDS011;2338;49.602;8.722;2024-02-16T11:05:43;4.33;;;2.60;;
4650;SDS011;2338;49.602;8.722;2024-02-16T11:08:30;9.47;;;3.50;;
4650;SDS011;2338;49.602;8.722;2024-02-16T11:11:23;6.50;;;2.80;;
4650;SDS011;2338;49.602;8.722;2024-02-16T11:14:14;6.23;;;2.60;;
4650;SDS011;2338;49.602;8.722;2024-02-16T11:17:01;6.00;;;2.53;;
4650;SDS011;2338;49.602;8.722;2024-02-16T11:19:47;6.93;;;3.20;;
4650;SDS011;2338;49.602;8.722;2024-02-16T11:22:33;6.33;;;3.03;;
4650;SDS011;2338;49.602;8.722;2024-02-16T11:25:30;7.43;;;3.50;;
4650;SDS011;2338;49.602;8.722;2024-02-16T11:28:16;8.20;;;3.40;;
4650;SDS011;2338;49.602;8.722;2024-02-16T11:31:04;6.93;;;3.33;;
4650;SDS011;2338;49.602;8.722;2024-02-16T11:33:52;7.80;;;3.30;;
4650;SDS011;2338;49.602;8.722;2024-02-16T11:36:37;7.33;;;3.67;;
4650;SDS011;2338;49.602;8.722;2024-02-16T11:39:23;10.10;;;3.70;;
4650;SDS011;2338;49.602;8.722;2024-02-16T11:42:11;6.00;;;3.70;;
4650;SDS011;2338;49.602;8.722;2024-02-16T11:44:58;6.37;;;3.50;;
4650;SDS011;2338;49.602;8.722;2024-02-16T11:47:44;5.33;;;3.37;;
4650;SDS011;2338;49.602;8.722;2024-02-16T11:50:31;5.53;;;3.60;;
4650;SDS011;2338;49.602;8.722;2024-02-16T11:53:17;6.10;;;4.00;;
4650;SDS011;2338;49.602;8.722;2024-02-16T11:56:04;6.80;;;3.30;;
4650;SDS011;2338;49.602;8.722;2024-02-16T11:58:50;6.50;;;3.10;;
4650;SDS011;2338;49.602;8.722;2024-02-16T12:01:35;11.30;;;3.27;;
4650;SDS011;2338;49.602;8.722;2024-02-16T12:04:21;8.30;;;2.83;;
4650;SDS011;2338;49.602;8.722;2024-02-16T12:07:09;8.20;;;3.00;;
4650;SDS011;2338;49.602;8.722;2024-02-16T12:09:58;4.13;;;2.60;;
4650;SDS011;2338;49.602;8.722;2024-02-16T12:12:44;10.40;;;3.10;;
4650;SDS011;2338;49.602;8.722;2024-02-16T12:15:30;5.53;;;2.90;;
4650;SDS011;2338;49.602;8.722;2024-02-16T12:18:20;6.03;;;3.20;;
4650;SDS011;2338;49.602;8.722;2024-02-16T12:21:06;7.33;;;3.33;;
4650;SDS011;2338;49.602;8.722;2024-02-16T12:23:54;13.03;;;3.33;;
4650;SDS011;2338;49.602;8.722;2024-02-16T12:26:40;8.90;;;3.00;;
4650;SDS011;2338;49.602;8.722;2024-02-16T12:29:26;11.77;;;6.03;;
4650;SDS011;2338;49.602;8.722;2024-02-16T12:32:12;11.33;;;3.00;;
4650;SDS011;2338;49.602;8.722;2024-02-16T12:35:02;7.07;;;3.33;;
4650;SDS011;2338;49.602;8.722;2024-02-16T12:37:49;7.17;;;3.37;;
4650;SDS011;2338;49.602;8.722;2024-02-16T12:40:36;10.27;;;3.60;;
4650;SDS011;2338;49.602;8.722;2024-02-16T12:43:21;8.77;;;4.80;;
4650;SDS011;2338;49.602;8.722;2024-02-16T12:46:07;7.30;;;4.07;;
4650;SDS011;2338;49.602;8.722;2024-02-16T12:48:52;8.90;;;4.00;;
4650;SDS011;2338;49.602;8.722;2024-02-16T12:51:38;9.40;;;3.23;;
4650;SDS011;2338;49.602;8.722;2024-02-16T12:54:24;9.60;;;4.10;;
4650;SDS011;2338;49.602;8.722;2024-02-16T12:57:12;9.47;;;4.73;;
4650;SDS011;2338;49.602;8.722;2024-02-16T12:59:58;7.60;;;4.20;;
4650;SDS011;2338;49.602;8.722;2024-02-16T13:02:44;5.90;;;3.10;;
4650;SDS011;2338;49.602;8.722;2024-02-16T13:05:29;5.23;;;3.20;;
4650;SDS011;2338;49.602;8.722;2024-02-16T13:08:16;9.23;;;4.00;;
4650;SDS011;2338;49.602;8.722;2024-02-16T13:11:02;7.87;;;4.07;;
4650;SDS011;2338;49.602;8.722;2024-02-16T13:13:49;8.70;;;3.33;;
4650;SDS011;2338;49.602;8.722;2024-02-16T13:16:36;6.70;;;3.87;;
4650;SDS011;2338;49.602;8.722;2024-02-16T13:19:21;5.83;;;2.97;;
4650;SDS011;2338;49.602;8.722;2024-02-16T13:22:07;8.60;;;3.00;;
4650;SDS011;2338;49.602;8.722;2024-02-16T13:24:52;8.73;;;4.13;;
4650;SDS011;2338;49.602;8.722;2024-02-16T13:27:38;8.73;;;3.60;;
4650;SDS011;2338;49.602;8.722;2024-02-16T13:30:25;6.20;;;3.03;;
4650;SDS011;2338;49.602;8.722;2024-02-16T13:33:11;7.30;;;3.47;;
4650;SDS011;2338;49.602;8.722;2024-02-16T13:35:57;19.73;;;12.17;;
4650;SDS011;2338;49.602;8.722;2024-02-16T13:38:43;18.93;;;9.87;;
4650;SDS011;2338;49.602;8.722;2024-02-16T13:41:28;17.00;;;9.43;;
4650;SDS011;2338;49.602;8.722;2024-02-16T13:44:14;8.90;;;4.40;;
4650;SDS011;2338;49.602;8.722;2024-02-16T13:47:01;9.87;;;3.43;;
4650;SDS011;2338;49.602;8.722;2024-02-16T13:49:46;14.10;;;3.40;;
4650;SDS011;2338;49.602;8.722;2024-02-16T13:52:32;12.33;;;7.40;;
4650;SDS011;2338;49.602;8.722;2024-02-16T13:55:18;7.20;;;3.83;;
4650;SDS011;2338;49.602;8.722;2024-02-16T13:58:04;7.23;;;3.40;;
4650;SDS011;2338;49.602;8.722;2024-02-16T14:00:50;8.40;;;3.20;;
4650;SDS011;2338;49.602;8.722;2024-02-16T14:03:37;7.43;;;3.10;;
4650;SDS011;2338;49.602;8.722;2024-02-16T14:06:22;5.43;;;3.03;;
4650;SDS011;2338;49.602;8.722;2024-02-16T14:09:08;12.57;;;2.90;;
4650;SDS011;2338;49.602;8.722;2024-02-16T14:11:57;9.70;;;2.70;;
4650;SDS011;2338;49.602;8.722;2024-02-16T14:14:44;8.53;;;5.03;;
4650;SDS011;2338;49.602;8.722;2024-02-16T14:17:29;5.13;;;3.30;;
4650;SDS011;2338;49.602;8.722;2024-02-16T14:20:17;8.07;;;2.47;;
4650;SDS011;2338;49.602;8.722;2024-02-16T14:23:04;6.47;;;3.07;;
4650;SDS011;2338;49.602;8.722;2024-02-16T14:25:52;9.90;;;3.17;;
4650;SDS011;2338;49.602;8.722;2024-02-16T14:28:37;15.23;;;3.70;;
4650;SDS011;2338;49.602;8.722;2024-02-16T14:31:23;14.83;;;3.40;;
4650;SDS011;2338;49.602;8.722;2024-02-16T14:34:08;8.97;;;4.60;;
4650;SDS011;2338;49.602;8.722;2024-02-16T14:36:55;7.27;;;2.93;;
4650;SDS011;2338;49.602;8.722;2024-02-16T14:39:41;6.03;;;2.70;;
4650;SDS011;2338;49.602;8.722;2024-02-16T14:42:27;8.90;;;4.00;;
4650;SDS011;2338;49.602;8.722;2024-02-16T14:45:13;10.03;;;4.00;;
4650;SDS011;2338;49.602;8.722;2024-02-16T14:48:03;8.40;;;2.97;;
4650;SDS011;2338;49.602;8.722;2024-02-16T14:50:48;8.70;;;3.37;;
4650;SDS011;2338;49.602;8.722;2024-02-16T14:53:36;5.57;;;3.27;;
4650;SDS011;2338;49.602;8.722;2024-02-16T14:56:21;6.23;;;3.50;;
4650;SDS011;2338;49.602;8.722;2024-02-16T14:59:07;10.77;;;3.53;;
4650;SDS011;2338;49.602;8.722;2024-02-16T15:01:54;6.00;;;3.57;;
4650;SDS011;2338;49.602;8.722;2024-02-16T15:04:40;8.43;;;3.27;;
4650;SDS011;2338;49.602;8.722;2024-02-16T15:07:25;7.13;;;3.37;;
4650;SDS011;2338;49.602;8.722;2024-02-16T15:10:12;7.93;;;2.53;;
4650;SDS011;2338;49.602;8.722;2024-02-16T15:12:58;6.60;;;2.53;;
4650;SDS011;2338;49.602;8.722;2024-02-16T15:15:44;10.00;;;3.20;;
4650;SDS011;2338;49.602;8.722;2024-02-16T15:18:29;5.67;;;2.60;;
4650;SDS011;2338;49.602;8.722;2024-02-16T15:21:15;4.53;;;2.10;;
4650;SDS011;2338;49.602;8.722;2024-02-16T15:24:01;12.00;;;3.13;;
4650;SDS011;2338;49.602;8.722;2024-02-16T15:26:48;11.50;;;3.33;;
4650;SDS011;2338;49.602;8.722;2024-02-16T15:29:33;5.97;;;3.00;;
4650;SDS011;2338;49.602;8.722;2024-02-16T15:32:19;4.30;;;2.80;;
4650;SDS011;2338;49.602;8.722;2024-02-16T15:35:05;5.23;;;2.80;;
4650;SDS011;2338;49.602;8.722;2024-02-16T15:37:51;5.03;;;2.97;;
4650;SDS011;2338;49.602;8.722;2024-02-16T15:40:37;12.23;;;2.87;;
4650;SDS011;2338;49.602;8.722;2024-02-16T15:43:24;6.53;;;2.63;;
4650;SDS011;2338;49.602;8.722;2024-02-16T15:46:11;5.03;;;3.10;;
4650;SDS011;2338;49.602;8.722;2024-02-16T15:48:56;5.67;;;2.97;;
4650;SDS011;2338;49.602;8.722;2024-02-16T15:51:42;6.20;;;3.20;;
4650;SDS011;2338;49.602;8.722;2024-02-16T15:54:28;6.90;;;2.90;;
4650;SDS011;2338;49.602;8.722;2024-02-16T15:57:13;10.17;;;2.63;;
4650;SDS011;2338;49.602;8.722;2024-02-16T16:00:01;6.00;;;2.83;;
4650;SDS011;2338;49.602;8.722;2024-02-16T16:02:47;7.43;;;2.37;;
4650;SDS011;2338;49.602;8.722;2024-02-16T16:05:33;6.67;;;2.73;;
4650;SDS011;2338;49.602;8.722;2024-02-16T16:08:19;5.83;;;3.00;;
4650;SDS011;2338;49.602;8.722;2024-02-16T16:11:05;6.90;;;2.73;;
4650;SDS011;2338;49.602;8.722;2024-02-16T16:13:50;6.00;;;3.00;;
4650;SDS011;2338;49.602;8.722;2024-02-16T16:16:37;6.20;;;2.60;;
4650;SDS011;2338;49.602;8.722;2024-02-16T16:19:23;4.13;;;2.67;;
4650;SDS011;2338;49.602;8.722;2024-02-16T16:22:08;6.80;;;3.20;;
4650;SDS011;2338;49.602;8.722;2024-02-16T16:24:54;14.67;;;3.53;;
4650;SDS011;2338;49.602;8.722;2024-02-16T16:27:43;4.90;;;2.87;;
4650;SDS011;2338;49.602;8.722;2024-02-16T16:30:31;7.87;;;3.37;;
4650;SDS011;2338;49.602;8.722;2024-02-16T16:33:19;5.37;;;2.60;;
4650;SDS011;2338;49.602;8.722;2024-02-16T16:36:05;8.60;;;3.20;;
4650;SDS011;2338;49.602;8.722;2024-02-16T16:38:57;7.40;;;3.30;;
4650;SDS011;2338;49.602;8.722;2024-02-16T16:41:42;7.87;;;3.87;;
4650;SDS011;2338;49.602;8.722;2024-02-16T16:44:28;4.80;;;3.60;;
4650;SDS011;2338;49.602;8.722;2024-02-16T16:47:14;8.70;;;3.90;;
4650;SDS011;2338;49.602;8.722;2024-02-16T16:50:01;8.93;;;3.67;;
4650;SDS011;2338;49.602;8.722;2024-02-16T16:52:47;9.90;;;3.70;;
4650;SDS011;2338;49.602;8.722;2024-02-16T16:55:33;9.03;;;4.00;;
4650;SDS011;2338;49.602;8.722;2024-02-16T16:58:19;8.00;;;3.43;;
4650;SDS011;2338;49.602;8.722;2024-02-16T17:01:05;7.37;;;4.03;;
4650;SDS011;2338;49.602;8.722;2024-02-16T17:03:52;9.67;;;3.73;;
4650;SDS011;2338;49.602;8.722;2024-02-16T17:06:39;8.63;;;3.60;;
4650;SDS011;2338;49.602;8.722;2024-02-16T17:09:24;6.77;;;4.10;;
4650;SDS011;2338;49.602;8.722;2024-02-16T17:12:11;6.80;;;3.80;;